MAD weather

Adolfo Suárez Madrid–Barajas Airport
Madrid, Madrid, Spain

Public forecast

Using degrees Celsius for public forecast. Weather courtesy of forecast.io.

METAR (pilot weather report)

Retrieved 2017/09/25 05:30 UTC (0 seconds ago):

LEMD 250530Z 36004KT CAVOK 13/06 Q1020 NOSIG

TAF (pilot weather forecast)

Forecast is more than 12 hours old.

Retrieved 2017/09/24 00:27 UTC (1 day ago):

TAF LEMD 242300Z 2500/2606 VRB04KT CAVOK TX29/2515Z TN12/2506Z BECMG 2518/2520 02012KT PROB40 TEMPO 2521/2524 02010G20KT